North Buena Vista, IA (52066)

1:47 PM CDT on May 24, 2015 (GMT -0500)
Kress Lane | | Change Station
CLOSE
Current Station
Personal Weather Station
Location: Potosi, WI
Elevation: 653 ft
Nearby Weather Stations

Elev 653 ft 42.63 °N, 90.66 °W | Updated 14 seconds ago

Rain
Rain
61.2 °F
Feels Like 61.2 °F
N
0.0
Wind Variable Wind from NNW
Gusts 0.0 mph

Today
High -- | Low -- °F
--% Chance of Precip.
Yesterday
High -- | Low -- °F
Precip. -- in
5:33 AM 8:28 PM
Waxing Crescent, 41% visible
Pressure 30.00 in
Visibility 7.0 miles
Clouds Overcast 3500 ft
Dew Point 59 °F
Humidity 93%
Rainfall 0.56 in
Snow Depth Not available.
UV 1.0 out of 12
Pollen 6.30 out of 12
Air Quality Not available.
Flu Activity Sporadic
METAR KDBQ 241753Z 08011KT 7SM -RA OVC035 16/14 A3000 RMK AO2 RAE18B48 SLP158 P0007 60044 T01560139 10156 20144 58030

More Conditions Fewer Conditions

Pressure 30.00 in
Visibility 7.0 miles
Clouds Overcast 3500 ft
Dew Point 59 °F
Humidity 93%
Rainfall 0.56 in
Snow Depth Not available.
UV 1.0 out of 12
Pollen 6.30 out of 12
Air Quality Not available.
Flu Activity Sporadic
METAR KDBQ 241753Z 08011KT 7SM -RA OVC035 16/14 A3000 RMK AO2 RAE18B48 SLP158 P0007 60044 T01560139 10156 20144 58030

More Conditions Fewer Conditions

10-Day Weather Forecast

Almanac

Astronomy

May. 24, 2015 Rise Set
Actual Time
Civil Twilight
Nautical Twilight
Astronomical Twilight
Moon
Length of Visible Light
Length of Day
Tomorrow will be .
, % of the Moon is Illuminated

Today's Extremes

State Highs State Lows

Community

WunderPhotos

Upload Photos

1,823,821 photos uploaded!

WunderBlogs® & News

Nearby

Air Quality

  Air Quality AQ Index Pollutant
Not available.

Snow Depth

Station Depth Elevation

Earthquake Activity

City Distance Mag. Time & Date
Minimum magnitude displayed is 2.5.

Coastal Water Temperatures

Place Temperature

Stations

Nearby Weather Stations

Station Location Temp. Windchill Dew Point Humidity Wind Precip. Elev Updated Type